sensor_id;sensor_type;location;lat;lon;timestamp;P1;durP1;ratioP1;P2;durP2;ratioP2
22794;SDS011;11564;50.920;11.612;2023-02-28T00:00:20;2.73;;;2.50;;
22794;SDS011;11564;50.920;11.612;2023-02-28T00:02:46;3.00;;;2.80;;
22794;SDS011;11564;50.920;11.612;2023-02-28T00:05:14;2.90;;;2.43;;
22794;SDS011;11564;50.920;11.612;2023-02-28T00:07:42;3.67;;;2.63;;
22794;SDS011;11564;50.920;11.612;2023-02-28T00:10:08;5.37;;;2.53;;
22794;SDS011;11564;50.920;11.612;2023-02-28T00:12:36;2.73;;;2.37;;
22794;SDS011;11564;50.920;11.612;2023-02-28T00:15:06;2.63;;;2.43;;
22794;SDS011;11564;50.920;11.612;2023-02-28T00:17:34;6.67;;;2.57;;
22794;SDS011;11564;50.920;11.612;2023-02-28T00:20:00;2.97;;;2.77;;
22794;SDS011;11564;50.920;11.612;2023-02-28T00:22:30;2.80;;;2.60;;
22794;SDS011;11564;50.920;11.612;2023-02-28T00:24:55;2.33;;;2.17;;
22794;SDS011;11564;50.920;11.612;2023-02-28T00:27:21;2.70;;;2.00;;
22794;SDS011;11564;50.920;11.612;2023-02-28T00:29:47;2.40;;;2.20;;
22794;SDS011;11564;50.920;11.612;2023-02-28T00:32:13;2.63;;;2.43;;
22794;SDS011;11564;50.920;11.612;2023-02-28T00:34:38;2.10;;;2.00;;
22794;SDS011;11564;50.920;11.612;2023-02-28T00:37:08;2.70;;;2.50;;
22794;SDS011;11564;50.920;11.612;2023-02-28T00:39:35;2.37;;;2.27;;
22794;SDS011;11564;50.920;11.612;2023-02-28T00:42:02;3.00;;;2.73;;
22794;SDS011;11564;50.920;11.612;2023-02-28T00:44:28;2.37;;;2.27;;
22794;SDS011;11564;50.920;11.612;2023-02-28T00:46:54;2.53;;;2.33;;
22794;SDS011;11564;50.920;11.612;2023-02-28T00:49:21;2.53;;;2.40;;
22794;SDS011;11564;50.920;11.612;2023-02-28T00:51:48;2.30;;;2.10;;
22794;SDS011;11564;50.920;11.612;2023-02-28T00:54:14;2.30;;;2.00;;
22794;SDS011;11564;50.920;11.612;2023-02-28T00:56:39;3.73;;;1.97;;
22794;SDS011;11564;50.920;11.612;2023-02-28T00:59:05;2.03;;;1.93;;
22794;SDS011;11564;50.920;11.612;2023-02-28T01:01:31;2.70;;;2.50;;
22794;SDS011;11564;50.920;11.612;2023-02-28T01:03:56;2.67;;;2.47;;
22794;SDS011;11564;50.920;11.612;2023-02-28T01:06:22;2.80;;;1.90;;
22794;SDS011;11564;50.920;11.612;2023-02-28T01:08:48;2.53;;;2.33;;
22794;SDS011;11564;50.920;11.612;2023-02-28T01:11:15;2.43;;;2.23;;
22794;SDS011;11564;50.920;11.612;2023-02-28T01:13:42;2.27;;;2.10;;
22794;SDS011;11564;50.920;11.612;2023-02-28T01:16:08;3.03;;;2.83;;
22794;SDS011;11564;50.920;11.612;2023-02-28T01:18:35;2.30;;;2.20;;
22794;SDS011;11564;50.920;11.612;2023-02-28T01:21:04;2.63;;;2.47;;
22794;SDS011;11564;50.920;11.612;2023-02-28T01:23:34;2.80;;;2.20;;
22794;SDS011;11564;50.920;11.612;2023-02-28T01:26:20;2.50;;;2.30;;
22794;SDS011;11564;50.920;11.612;2023-02-28T01:28:47;2.60;;;2.40;;
22794;SDS011;11564;50.920;11.612;2023-02-28T01:31:13;3.27;;;2.63;;
22794;SDS011;11564;50.920;11.612;2023-02-28T01:33:39;3.90;;;2.70;;
22794;SDS011;11564;50.920;11.612;2023-02-28T01:36:06;2.23;;;2.13;;
22794;SDS011;11564;50.920;11.612;2023-02-28T01:38:35;2.67;;;2.47;;
22794;SDS011;11564;50.920;11.612;2023-02-28T01:41:00;2.87;;;2.67;;
22794;SDS011;11564;50.920;11.612;2023-02-28T01:43:31;2.63;;;2.20;;
22794;SDS011;11564;50.920;11.612;2023-02-28T01:46:13;2.70;;;2.50;;
22794;SDS011;11564;50.920;11.612;2023-02-28T01:48:46;4.13;;;2.87;;
22794;SDS011;11564;50.920;11.612;2023-02-28T01:51:50;3.47;;;3.17;;
22794;SDS011;11564;50.920;11.612;2023-02-28T01:54:33;2.77;;;2.57;;
22794;SDS011;11564;50.920;11.612;2023-02-28T01:57:10;3.63;;;3.33;;
22794;SDS011;11564;50.920;11.612;2023-02-28T02:02:17;2.83;;;2.73;;
22794;SDS011;11564;50.920;11.612;2023-02-28T02:04:56;3.00;;;2.67;;
22794;SDS011;11564;50.920;11.612;2023-02-28T02:07:29;2.50;;;2.40;;
22794;SDS011;11564;50.920;11.612;2023-02-28T02:10:21;3.73;;;2.77;;
22794;SDS011;11564;50.920;11.612;2023-02-28T02:13:08;3.40;;;3.17;;
22794;SDS011;11564;50.920;11.612;2023-02-28T02:15:43;3.30;;;3.00;;
22794;SDS011;11564;50.920;11.612;2023-02-28T02:27:27;3.37;;;3.17;;
22794;SDS011;11564;50.920;11.612;2023-02-28T02:33:05;3.20;;;2.90;;
22794;SDS011;11564;50.920;11.612;2023-02-28T02:35:55;3.47;;;2.47;;
22794;SDS011;11564;50.920;11.612;2023-02-28T02:38:36;2.53;;;2.30;;
22794;SDS011;11564;50.920;11.612;2023-02-28T02:41:27;2.40;;;2.30;;
22794;SDS011;11564;50.920;11.612;2023-02-28T02:44:21;3.57;;;2.80;;
22794;SDS011;11564;50.920;11.612;2023-02-28T02:46:52;2.80;;;2.60;;
22794;SDS011;11564;50.920;11.612;2023-02-28T02:49:28;4.63;;;3.70;;
22794;SDS011;11564;50.920;11.612;2023-02-28T02:51:57;3.83;;;3.17;;
22794;SDS011;11564;50.920;11.612;2023-02-28T02:54:29;5.00;;;3.20;;
22794;SDS011;11564;50.920;11.612;2023-02-28T02:56:58;2.90;;;2.70;;
22794;SDS011;11564;50.920;11.612;2023-02-28T02:59:28;3.77;;;2.90;;
22794;SDS011;11564;50.920;11.612;2023-02-28T03:01:57;3.53;;;3.23;;
22794;SDS011;11564;50.920;11.612;2023-02-28T03:04:27;2.70;;;2.50;;
22794;SDS011;11564;50.920;11.612;2023-02-28T03:06:58;3.67;;;3.37;;
22794;SDS011;11564;50.920;11.612;2023-02-28T03:09:24;3.83;;;2.93;;
22794;SDS011;11564;50.920;11.612;2023-02-28T03:11:51;3.40;;;3.10;;
22794;SDS011;11564;50.920;11.612;2023-02-28T03:20:15;3.30;;;3.10;;
22794;SDS011;11564;50.920;11.612;2023-02-28T03:25:46;4.83;;;3.10;;
22794;SDS011;11564;50.920;11.612;2023-02-28T03:31:48;3.40;;;3.20;;
22794;SDS011;11564;50.920;11.612;2023-02-28T03:33:55;4.50;;;3.40;;
22794;SDS011;11564;50.920;11.612;2023-02-28T03:36:37;5.87;;;2.93;;
22794;SDS011;11564;50.920;11.612;2023-02-28T03:39:27;5.73;;;2.93;;
22794;SDS011;11564;50.920;11.612;2023-02-28T03:42:03;3.43;;;3.13;;
22794;SDS011;11564;50.920;11.612;2023-02-28T03:44:39;3.87;;;3.57;;
22794;SDS011;11564;50.920;11.612;2023-02-28T03:49:40;2.97;;;2.77;;
22794;SDS011;11564;50.920;11.612;2023-02-28T03:52:10;4.10;;;3.70;;
22794;SDS011;11564;50.920;11.612;2023-02-28T03:54:38;3.30;;;3.00;;
22794;SDS011;11564;50.920;11.612;2023-02-28T03:57:19;3.73;;;3.43;;
22794;SDS011;11564;50.920;11.612;2023-02-28T04:00:08;4.67;;;3.50;;
22794;SDS011;11564;50.920;11.612;2023-02-28T04:02:38;3.37;;;3.13;;
22794;SDS011;11564;50.920;11.612;2023-02-28T04:05:05;2.87;;;2.67;;
22794;SDS011;11564;50.920;11.612;2023-02-28T04:07:32;3.10;;;2.80;;
22794;SDS011;11564;50.920;11.612;2023-02-28T04:09:58;3.60;;;3.30;;
22794;SDS011;11564;50.920;11.612;2023-02-28T04:12:24;5.00;;;3.47;;
22794;SDS011;11564;50.920;11.612;2023-02-28T04:14:50;4.13;;;3.33;;
22794;SDS011;11564;50.920;11.612;2023-02-28T04:17:16;3.03;;;2.83;;
22794;SDS011;11564;50.920;11.612;2023-02-28T04:19:42;3.20;;;2.90;;
22794;SDS011;11564;50.920;11.612;2023-02-28T04:22:08;3.40;;;3.20;;
22794;SDS011;11564;50.920;11.612;2023-02-28T04:24:34;2.97;;;2.77;;
22794;SDS011;11564;50.920;11.612;2023-02-28T04:27:00;3.83;;;3.43;;
22794;SDS011;11564;50.920;11.612;2023-02-28T04:29:30;4.10;;;3.70;;
22794;SDS011;11564;50.920;11.612;2023-02-28T04:31:57;2.97;;;2.73;;
22794;SDS011;11564;50.920;11.612;2023-02-28T04:34:25;3.43;;;3.13;;
22794;SDS011;11564;50.920;11.612;2023-02-28T04:36:51;3.53;;;3.20;;
22794;SDS011;11564;50.920;11.612;2023-02-28T04:39:20;5.53;;;3.57;;
22794;SDS011;11564;50.920;11.612;2023-02-28T04:41:46;2.87;;;2.67;;
22794;SDS011;11564;50.920;11.612;2023-02-28T04:44:12;3.57;;;3.27;;
22794;SDS011;11564;50.920;11.612;2023-02-28T04:46:38;4.30;;;3.17;;
22794;SDS011;11564;50.920;11.612;2023-02-28T04:49:04;3.23;;;3.03;;
22794;SDS011;11564;50.920;11.612;2023-02-28T04:51:30;3.20;;;2.90;;
22794;SDS011;11564;50.920;11.612;2023-02-28T04:53:55;3.40;;;3.10;;
22794;SDS011;11564;50.920;11.612;2023-02-28T04:56:21;3.50;;;3.20;;
22794;SDS011;11564;50.920;11.612;2023-02-28T04:58:47;3.70;;;3.40;;
22794;SDS011;11564;50.920;11.612;2023-02-28T05:01:35;4.67;;;3.73;;
22794;SDS011;11564;50.920;11.612;2023-02-28T05:04:01;8.60;;;3.17;;
22794;SDS011;11564;50.920;11.612;2023-02-28T05:06:29;2.93;;;2.73;;
22794;SDS011;11564;50.920;11.612;2023-02-28T05:08:56;3.33;;;3.13;;
22794;SDS011;11564;50.920;11.612;2023-02-28T05:11:29;3.50;;;3.20;;
22794;SDS011;11564;50.920;11.612;2023-02-28T05:13:59;3.23;;;2.57;;
22794;SDS011;11564;50.920;11.612;2023-02-28T05:16:29;2.00;;;1.90;;
22794;SDS011;11564;50.920;11.612;2023-02-28T05:18:55;2.40;;;2.20;;
22794;SDS011;11564;50.920;11.612;2023-02-28T05:23:56;2.70;;;2.50;;
22794;SDS011;11564;50.920;11.612;2023-02-28T05:26:23;6.70;;;2.63;;
22794;SDS011;11564;50.920;11.612;2023-02-28T05:28:49;2.47;;;2.37;;
22794;SDS011;11564;50.920;11.612;2023-02-28T05:31:15;3.20;;;2.87;;
22794;SDS011;11564;50.920;11.612;2023-02-28T05:33:40;2.30;;;2.10;;
22794;SDS011;11564;50.920;11.612;2023-02-28T05:36:06;3.07;;;2.87;;
22794;SDS011;11564;50.920;11.612;2023-02-28T05:38:32;2.83;;;2.63;;
22794;SDS011;11564;50.920;11.612;2023-02-28T05:40:58;5.30;;;2.80;;
22794;SDS011;11564;50.920;11.612;2023-02-28T05:43:23;3.07;;;2.77;;
22794;SDS011;11564;50.920;11.612;2023-02-28T05:45:49;5.40;;;3.03;;
22794;SDS011;11564;50.920;11.612;2023-02-28T05:48:15;4.27;;;2.97;;
22794;SDS011;11564;50.920;11.612;2023-02-28T05:50:41;5.20;;;3.07;;
22794;SDS011;11564;50.920;11.612;2023-02-28T05:53:07;2.90;;;2.60;;
22794;SDS011;11564;50.920;11.612;2023-02-28T05:55:33;5.53;;;3.13;;
22794;SDS011;11564;50.920;11.612;2023-02-28T05:58:00;3.80;;;3.00;;
22794;SDS011;11564;50.920;11.612;2023-02-28T06:00:26;5.00;;;3.00;;
22794;SDS011;11564;50.920;11.612;2023-02-28T06:02:52;4.80;;;3.37;;
22794;SDS011;11564;50.920;11.612;2023-02-28T06:05:21;5.20;;;3.77;;
22794;SDS011;11564;50.920;11.612;2023-02-28T06:07:47;5.20;;;4.00;;
22794;SDS011;11564;50.920;11.612;2023-02-28T06:10:13;4.23;;;3.70;;
22794;SDS011;11564;50.920;11.612;2023-02-28T06:12:39;4.53;;;3.60;;
22794;SDS011;11564;50.920;11.612;2023-02-28T06:15:07;6.53;;;4.30;;
22794;SDS011;11564;50.920;11.612;2023-02-28T06:17:36;4.10;;;3.40;;
22794;SDS011;11564;50.920;11.612;2023-02-28T06:20:04;6.23;;;3.90;;
22794;SDS011;11564;50.920;11.612;2023-02-28T06:22:30;5.80;;;3.87;;
22794;SDS011;11564;50.920;11.612;2023-02-28T06:24:57;8.13;;;4.47;;
22794;SDS011;11564;50.920;11.612;2023-02-28T06:27:22;5.43;;;4.50;;
22794;SDS011;11564;50.920;11.612;2023-02-28T06:29:48;8.57;;;5.07;;
22794;SDS011;11564;50.920;11.612;2023-02-28T06:32:18;6.73;;;4.50;;
22794;SDS011;11564;50.920;11.612;2023-02-28T06:34:43;5.07;;;4.63;;
22794;SDS011;11564;50.920;11.612;2023-02-28T06:37:09;5.90;;;4.90;;
22794;SDS011;11564;50.920;11.612;2023-02-28T06:39:35;6.30;;;4.60;;
22794;SDS011;11564;50.920;11.612;2023-02-28T06:42:00;5.33;;;4.57;;
22794;SDS011;11564;50.920;11.612;2023-02-28T06:44:26;6.10;;;4.80;;
22794;SDS011;11564;50.920;11.612;2023-02-28T06:46:51;4.80;;;4.40;;
22794;SDS011;11564;50.920;11.612;2023-02-28T06:49:17;7.97;;;5.10;;
22794;SDS011;11564;50.920;11.612;2023-02-28T06:51:43;7.10;;;4.70;;
22794;SDS011;11564;50.920;11.612;2023-02-28T06:54:12;4.67;;;4.27;;
22794;SDS011;11564;50.920;11.612;2023-02-28T06:56:38;4.07;;;3.77;;
22794;SDS011;11564;50.920;11.612;2023-02-28T06:59:04;4.60;;;3.67;;
22794;SDS011;11564;50.920;11.612;2023-02-28T07:01:30;3.43;;;3.23;;
22794;SDS011;11564;50.920;11.612;2023-02-28T07:03:57;6.00;;;4.63;;
22794;SDS011;11564;50.920;11.612;2023-02-28T07:06:25;4.37;;;3.80;;
22794;SDS011;11564;50.920;11.612;2023-02-28T07:08:51;5.30;;;4.10;;
22794;SDS011;11564;50.920;11.612;2023-02-28T07:11:20;6.60;;;4.53;;
22794;SDS011;11564;50.920;11.612;2023-02-28T07:13:47;6.13;;;4.87;;
22794;SDS011;11564;50.920;11.612;2023-02-28T07:16:14;11.30;;;6.07;;
22794;SDS011;11564;50.920;11.612;2023-02-28T07:18:39;19.63;;;6.63;;
22794;SDS011;11564;50.920;11.612;2023-02-28T07:21:07;15.20;;;6.33;;
22794;SDS011;11564;50.920;11.612;2023-02-28T07:23:34;8.13;;;5.97;;
22794;SDS011;11564;50.920;11.612;2023-02-28T07:26:02;10.27;;;6.13;;
22794;SDS011;11564;50.920;11.612;2023-02-28T07:28:28;9.60;;;6.07;;
22794;SDS011;11564;50.920;11.612;2023-02-28T07:30:53;7.83;;;5.93;;
22794;SDS011;11564;50.920;11.612;2023-02-28T07:33:19;10.27;;;6.50;;
22794;SDS011;11564;50.920;11.612;2023-02-28T07:35:44;9.63;;;5.30;;
22794;SDS011;11564;50.920;11.612;2023-02-28T07:38:10;11.90;;;5.70;;
22794;SDS011;11564;50.920;11.612;2023-02-28T07:40:38;14.13;;;5.77;;
22794;SDS011;11564;50.920;11.612;2023-02-28T07:43:04;6.00;;;5.00;;
22794;SDS011;11564;50.920;11.612;2023-02-28T07:45:30;9.30;;;5.40;;
22794;SDS011;11564;50.920;11.612;2023-02-28T07:47:59;5.70;;;4.47;;
22794;SDS011;11564;50.920;11.612;2023-02-28T07:50:25;6.93;;;5.00;;
22794;SDS011;11564;50.920;11.612;2023-02-28T07:52:55;4.53;;;4.13;;
22794;SDS011;11564;50.920;11.612;2023-02-28T07:55:22;6.33;;;4.60;;
22794;SDS011;11564;50.920;11.612;2023-02-28T07:57:48;6.60;;;4.67;;
22794;SDS011;11564;50.920;11.612;2023-02-28T08:00:13;5.13;;;3.67;;
22794;SDS011;11564;50.920;11.612;2023-02-28T08:02:39;4.83;;;4.43;;
22794;SDS011;11564;50.920;11.612;2023-02-28T08:05:05;4.80;;;4.40;;
22794;SDS011;11564;50.920;11.612;2023-02-28T08:07:33;4.73;;;4.20;;
22794;SDS011;11564;50.920;11.612;2023-02-28T08:09:58;7.20;;;3.97;;
22794;SDS011;11564;50.920;11.612;2023-02-28T08:12:24;5.53;;;3.83;;
22794;SDS011;11564;50.920;11.612;2023-02-28T08:14:50;8.47;;;4.23;;
22794;SDS011;11564;50.920;11.612;2023-02-28T08:17:16;4.77;;;3.60;;
22794;SDS011;11564;50.920;11.612;2023-02-28T08:19:41;6.50;;;3.90;;
22794;SDS011;11564;50.920;11.612;2023-02-28T08:22:09;6.47;;;3.97;;
22794;SDS011;11564;50.920;11.612;2023-02-28T08:24:35;4.73;;;4.30;;
22794;SDS011;11564;50.920;11.612;2023-02-28T08:27:00;5.27;;;4.07;;
22794;SDS011;11564;50.920;11.612;2023-02-28T08:29:26;5.37;;;4.50;;
22794;SDS011;11564;50.920;11.612;2023-02-28T08:31:52;4.97;;;4.47;;
22794;SDS011;11564;50.920;11.612;2023-02-28T08:34:17;7.67;;;4.47;;
22794;SDS011;11564;50.920;11.612;2023-02-28T08:36:43;7.10;;;4.60;;
22794;SDS011;11564;50.920;11.612;2023-02-28T08:39:12;6.23;;;4.70;;
22794;SDS011;11564;50.920;11.612;2023-02-28T08:41:37;5.83;;;4.53;;
22794;SDS011;11564;50.920;11.612;2023-02-28T08:44:03;4.50;;;4.10;;
22794;SDS011;11564;50.920;11.612;2023-02-28T08:46:29;7.67;;;4.70;;
22794;SDS011;11564;50.920;11.612;2023-02-28T08:48:55;7.20;;;4.47;;
22794;SDS011;11564;50.920;11.612;2023-02-28T08:51:25;11.03;;;5.00;;
22794;SDS011;11564;50.920;11.612;2023-02-28T08:53:54;7.07;;;4.03;;
22794;SDS011;11564;50.920;11.612;2023-02-28T08:56:21;8.47;;;4.50;;
22794;SDS011;11564;50.920;11.612;2023-02-28T08:58:48;6.77;;;4.47;;
22794;SDS011;11564;50.920;11.612;2023-02-28T09:01:18;6.50;;;4.53;;
22794;SDS011;11564;50.920;11.612;2023-02-28T09:03:46;5.57;;;4.07;;
22794;SDS011;11564;50.920;11.612;2023-02-28T09:06:13;5.23;;;4.20;;
22794;SDS011;11564;50.920;11.612;2023-02-28T09:08:40;4.33;;;4.03;;
22794;SDS011;11564;50.920;11.612;2023-02-28T09:11:06;4.27;;;3.33;;
22794;SDS011;11564;50.920;11.612;2023-02-28T09:13:34;4.20;;;3.53;;
22794;SDS011;11564;50.920;11.612;2023-02-28T09:16:00;6.47;;;4.50;;
22794;SDS011;11564;50.920;11.612;2023-02-28T09:18:27;4.40;;;4.10;;
22794;SDS011;11564;50.920;11.612;2023-02-28T09:20:53;5.30;;;4.10;;
22794;SDS011;11564;50.920;11.612;2023-02-28T09:23:19;4.43;;;3.33;;
22794;SDS011;11564;50.920;11.612;2023-02-28T09:25:45;5.30;;;4.07;;
22794;SDS011;11564;50.920;11.612;2023-02-28T09:28:13;7.57;;;4.00;;
22794;SDS011;11564;50.920;11.612;2023-02-28T09:30:40;4.07;;;3.43;;
22794;SDS011;11564;50.920;11.612;2023-02-28T09:33:06;7.63;;;3.23;;
22794;SDS011;11564;50.920;11.612;2023-02-28T09:35:32;3.33;;;2.60;;
22794;SDS011;11564;50.920;11.612;2023-02-28T09:37:58;3.77;;;3.40;;
22794;SDS011;11564;50.920;11.612;2023-02-28T09:40:24;8.80;;;3.53;;
22794;SDS011;11564;50.920;11.612;2023-02-28T09:42:51;3.57;;;2.90;;
22794;SDS011;11564;50.920;11.612;2023-02-28T09:45:27;4.33;;;2.63;;
22794;SDS011;11564;50.920;11.612;2023-02-28T09:48:24;3.10;;;2.90;;
22794;SDS011;11564;50.920;11.612;2023-02-28T09:53:58;3.83;;;2.70;;
22794;SDS011;11564;50.920;11.612;2023-02-28T09:56:25;4.60;;;3.57;;
22794;SDS011;11564;50.920;11.612;2023-02-28T09:58:59;3.67;;;3.20;;
22794;SDS011;11564;50.920;11.612;2023-02-28T10:02:30;3.87;;;3.10;;
22794;SDS011;11564;50.920;11.612;2023-02-28T10:04:54;2.87;;;2.67;;
22794;SDS011;11564;50.920;11.612;2023-02-28T10:09:53;3.40;;;3.10;;
22794;SDS011;11564;50.920;11.612;2023-02-28T10:12:22;4.23;;;3.77;;
22794;SDS011;11564;50.920;11.612;2023-02-28T10:14:49;3.90;;;3.57;;
22794;SDS011;11564;50.920;11.612;2023-02-28T10:17:22;3.10;;;2.80;;
22794;SDS011;11564;50.920;11.612;2023-02-28T10:20:24;4.20;;;3.40;;
22794;SDS011;11564;50.920;11.612;2023-02-28T10:25:36;4.30;;;3.03;;
22794;SDS011;11564;50.920;11.612;2023-02-28T10:28:10;8.83;;;3.80;;
22794;SDS011;11564;50.920;11.612;2023-02-28T10:30:38;3.80;;;3.10;;
22794;SDS011;11564;50.920;11.612;2023-02-28T10:33:09;3.50;;;3.20;;
22794;SDS011;11564;50.920;11.612;2023-02-28T10:35:56;7.70;;;3.83;;
22794;SDS011;11564;50.920;11.612;2023-02-28T10:38:23;4.37;;;3.50;;
22794;SDS011;11564;50.920;11.612;2023-02-28T10:40:51;4.03;;;3.60;;
22794;SDS011;11564;50.920;11.612;2023-02-28T10:43:27;3.67;;;3.37;;
22794;SDS011;11564;50.920;11.612;2023-02-28T10:45:57;4.17;;;3.83;;
22794;SDS011;11564;50.920;11.612;2023-02-28T10:50:57;5.63;;;3.30;;
22794;SDS011;11564;50.920;11.612;2023-02-28T10:56:14;7.27;;;4.20;;
22794;SDS011;11564;50.920;11.612;2023-02-28T10:58:44;6.30;;;3.50;;
22794;SDS011;11564;50.920;11.612;2023-02-28T11:01:47;3.87;;;3.37;;
22794;SDS011;11564;50.920;11.612;2023-02-28T11:06:44;7.03;;;4.30;;
22794;SDS011;11564;50.920;11.612;2023-02-28T11:11:50;5.20;;;3.50;;
22794;SDS011;11564;50.920;11.612;2023-02-28T11:14:27;5.10;;;4.20;;
22794;SDS011;11564;50.920;11.612;2023-02-28T11:16:55;4.83;;;4.40;;
22794;SDS011;11564;50.920;11.612;2023-02-28T11:19:44;4.73;;;4.20;;
22794;SDS011;11564;50.920;11.612;2023-02-28T11:22:15;5.10;;;4.60;;
22794;SDS011;11564;50.920;11.612;2023-02-28T11:24:51;5.17;;;4.57;;
22794;SDS011;11564;50.920;11.612;2023-02-28T11:29:54;5.10;;;4.60;;
22794;SDS011;11564;50.920;11.612;2023-02-28T11:32:20;5.80;;;4.23;;
22794;SDS011;11564;50.920;11.612;2023-02-28T11:37:36;5.20;;;4.23;;
22794;SDS011;11564;50.920;11.612;2023-02-28T11:40:04;7.07;;;4.70;;
22794;SDS011;11564;50.920;11.612;2023-02-28T11:45:22;6.63;;;4.70;;
22794;SDS011;11564;50.920;11.612;2023-02-28T11:56:39;5.07;;;4.60;;
22794;SDS011;11564;50.920;11.612;2023-02-28T12:07:14;5.63;;;4.10;;
22794;SDS011;11564;50.920;11.612;2023-02-28T12:12:49;5.27;;;4.60;;
22794;SDS011;11564;50.920;11.612;2023-02-28T12:15:29;4.83;;;4.33;;
22794;SDS011;11564;50.920;11.612;2023-02-28T12:26:53;5.40;;;4.50;;
22794;SDS011;11564;50.920;11.612;2023-02-28T12:31:56;13.50;;;6.20;;
22794;SDS011;11564;50.920;11.612;2023-02-28T12:34:33;5.80;;;4.73;;
22794;SDS011;11564;50.920;11.612;2023-02-28T12:37:12;5.57;;;4.37;;
22794;SDS011;11564;50.920;11.612;2023-02-28T12:39:46;5.23;;;4.40;;
22794;SDS011;11564;50.920;11.612;2023-02-28T12:42:19;7.73;;;4.60;;
22794;SDS011;11564;50.920;11.612;2023-02-28T12:47:44;6.20;;;5.30;;
22794;SDS011;11564;50.920;11.612;2023-02-28T12:50:14;8.93;;;5.90;;
22794;SDS011;11564;50.920;11.612;2023-02-28T12:52:58;5.53;;;4.97;;
22794;SDS011;11564;50.920;11.612;2023-02-28T12:58:27;9.17;;;5.50;;
22794;SDS011;11564;50.920;11.612;2023-02-28T13:09:16;7.63;;;6.93;;
22794;SDS011;11564;50.920;11.612;2023-02-28T13:11:46;7.37;;;4.80;;
22794;SDS011;11564;50.920;11.612;2023-02-28T13:14:30;6.57;;;5.20;;
22794;SDS011;11564;50.920;11.612;2023-02-28T13:19:38;7.40;;;5.47;;
22794;SDS011;11564;50.920;11.612;2023-02-28T13:22:20;9.43;;;5.03;;
22794;SDS011;11564;50.920;11.612;2023-02-28T13:27:48;4.40;;;4.03;;
22794;SDS011;11564;50.920;11.612;2023-02-28T13:35:45;8.37;;;5.50;;
22794;SDS011;11564;50.920;11.612;2023-02-28T13:38:13;6.33;;;5.30;;
22794;SDS011;11564;50.920;11.612;2023-02-28T13:40:46;7.93;;;5.40;;
22794;SDS011;11564;50.920;11.612;2023-02-28T13:43:12;6.60;;;5.03;;
22794;SDS011;11564;50.920;11.612;2023-02-28T13:46:03;6.20;;;5.60;;
22794;SDS011;11564;50.920;11.612;2023-02-28T13:48:31;8.40;;;5.00;;
22794;SDS011;11564;50.920;11.612;2023-02-28T13:50:57;5.10;;;4.57;;
22794;SDS011;11564;50.920;11.612;2023-02-28T13:56:22;5.10;;;4.60;;
22794;SDS011;11564;50.920;11.612;2023-02-28T13:59:23;5.90;;;5.30;;
22794;SDS011;11564;50.920;11.612;2023-02-28T14:02:25;8.53;;;5.17;;
22794;SDS011;11564;50.920;11.612;2023-02-28T14:07:44;6.10;;;5.60;;
22794;SDS011;11564;50.920;11.612;2023-02-28T14:16:13;12.30;;;5.80;;
22794;SDS011;11564;50.920;11.612;2023-02-28T14:18:41;7.50;;;5.70;;
22794;SDS011;11564;50.920;11.612;2023-02-28T14:21:19;7.30;;;6.13;;
22794;SDS011;11564;50.920;11.612;2023-02-28T14:38:03;7.87;;;5.43;;
22794;SDS011;11564;50.920;11.612;2023-02-28T14:40:32;8.10;;;5.83;;
22794;SDS011;11564;50.920;11.612;2023-02-28T14:43:04;8.50;;;5.70;;
22794;SDS011;11564;50.920;11.612;2023-02-28T14:45:31;12.90;;;5.57;;
22794;SDS011;11564;50.920;11.612;2023-02-28T14:47:59;7.30;;;5.50;;
22794;SDS011;11564;50.920;11.612;2023-02-28T14:50:29;7.17;;;5.60;;
22794;SDS011;11564;50.920;11.612;2023-02-28T14:52:57;6.40;;;5.20;;
22794;SDS011;11564;50.920;11.612;2023-02-28T14:55:26;6.77;;;5.43;;
22794;SDS011;11564;50.920;11.612;2023-02-28T14:57:55;6.87;;;6.13;;
22794;SDS011;11564;50.920;11.612;2023-02-28T15:00:26;9.43;;;5.40;;
22794;SDS011;11564;50.920;11.612;2023-02-28T15:02:59;15.37;;;5.97;;
22794;SDS011;11564;50.920;11.612;2023-02-28T15:05:37;6.43;;;5.80;;
22794;SDS011;11564;50.920;11.612;2023-02-28T15:13:05;14.10;;;6.40;;
22794;SDS011;11564;50.920;11.612;2023-02-28T15:19:02;8.30;;;6.60;;
22794;SDS011;11564;50.920;11.612;2023-02-28T15:23:51;8.63;;;6.03;;
22794;SDS011;11564;50.920;11.612;2023-02-28T15:26:19;10.73;;;6.53;;
22794;SDS011;11564;50.920;11.612;2023-02-28T15:28:49;7.10;;;5.47;;
22794;SDS011;11564;50.920;11.612;2023-02-28T15:31:29;7.20;;;5.80;;
22794;SDS011;11564;50.920;11.612;2023-02-28T15:34:02;6.80;;;5.47;;
22794;SDS011;11564;50.920;11.612;2023-02-28T15:36:31;5.70;;;5.13;;
22794;SDS011;11564;50.920;11.612;2023-02-28T15:38:59;6.23;;;5.67;;
22794;SDS011;11564;50.920;11.612;2023-02-28T15:41:46;8.37;;;6.73;;
22794;SDS011;11564;50.920;11.612;2023-02-28T15:44:15;9.17;;;6.50;;
22794;SDS011;11564;50.920;11.612;2023-02-28T15:46:53;10.40;;;6.90;;
22794;SDS011;11564;50.920;11.612;2023-02-28T15:49:52;11.43;;;7.87;;
22794;SDS011;11564;50.920;11.612;2023-02-28T15:52:27;11.23;;;7.07;;
22794;SDS011;11564;50.920;11.612;2023-02-28T15:55:06;18.43;;;6.70;;
22794;SDS011;11564;50.920;11.612;2023-02-28T15:57:33;9.97;;;7.20;;
22794;SDS011;11564;50.920;11.612;2023-02-28T16:00:02;7.90;;;6.30;;
22794;SDS011;11564;50.920;11.612;2023-02-28T16:05:01;11.63;;;6.83;;
22794;SDS011;11564;50.920;11.612;2023-02-28T16:07:31;12.50;;;7.23;;
22794;SDS011;11564;50.920;11.612;2023-02-28T16:09:56;9.77;;;6.80;;
22794;SDS011;11564;50.920;11.612;2023-02-28T16:12:25;10.47;;;7.60;;
22794;SDS011;11564;50.920;11.612;2023-02-28T16:14:54;8.43;;;7.23;;
22794;SDS011;11564;50.920;11.612;2023-02-28T16:17:23;9.30;;;7.17;;
22794;SDS011;11564;50.920;11.612;2023-02-28T16:19:51;10.00;;;6.80;;
22794;SDS011;11564;50.920;11.612;2023-02-28T16:22:17;8.50;;;6.77;;
22794;SDS011;11564;50.920;11.612;2023-02-28T16:24:43;10.75;;;7.50;;
22794;SDS011;11564;50.920;11.612;2023-02-28T16:27:20;13.10;;;7.20;;
22794;SDS011;11564;50.920;11.612;2023-02-28T16:29:51;12.37;;;7.90;;
22794;SDS011;11564;50.920;11.612;2023-02-28T16:32:17;10.03;;;8.13;;
22794;SDS011;11564;50.920;11.612;2023-02-28T16:34:43;9.87;;;7.67;;
22794;SDS011;11564;50.920;11.612;2023-02-28T16:37:11;11.43;;;7.37;;
22794;SDS011;11564;50.920;11.612;2023-02-28T16:39:41;17.50;;;8.83;;
22794;SDS011;11564;50.920;11.612;2023-02-28T16:42:10;10.70;;;8.00;;
22794;SDS011;11564;50.920;11.612;2023-02-28T16:44:41;11.10;;;6.97;;
22794;SDS011;11564;50.920;11.612;2023-02-28T16:47:08;11.80;;;7.43;;
22794;SDS011;11564;50.920;11.612;2023-02-28T16:49:35;14.17;;;8.00;;
22794;SDS011;11564;50.920;11.612;2023-02-28T16:52:00;10.83;;;8.07;;
22794;SDS011;11564;50.920;11.612;2023-02-28T16:54:26;13.07;;;9.20;;
22794;SDS011;11564;50.920;11.612;2023-02-28T16:56:52;10.23;;;7.97;;
22794;SDS011;11564;50.920;11.612;2023-02-28T16:59:24;8.87;;;7.07;;
22794;SDS011;11564;50.920;11.612;2023-02-28T17:01:52;9.37;;;6.70;;
22794;SDS011;11564;50.920;11.612;2023-02-28T17:04:19;10.97;;;8.03;;
22794;SDS011;11564;50.920;11.612;2023-02-28T17:06:45;16.50;;;8.47;;
22794;SDS011;11564;50.920;11.612;2023-02-28T17:09:15;13.07;;;8.27;;
22794;SDS011;11564;50.920;11.612;2023-02-28T17:11:43;12.53;;;6.97;;
22794;SDS011;11564;50.920;11.612;2023-02-28T17:14:09;9.20;;;7.03;;
22794;SDS011;11564;50.920;11.612;2023-02-28T17:16:35;10.30;;;7.50;;
22794;SDS011;11564;50.920;11.612;2023-02-28T17:19:05;15.10;;;8.40;;
22794;SDS011;11564;50.920;11.612;2023-02-28T17:21:32;9.10;;;7.33;;
22794;SDS011;11564;50.920;11.612;2023-02-28T17:23:59;10.87;;;6.67;;